sensor_id;sensor_type;location;lat;lon;timestamp;P1;durP1;ratioP1;P2;durP2;ratioP2
67889;SDS011;54685;52.082;5.426;2023-09-30T00:00:10;13.70;;;4.93;;
67889;SDS011;54685;52.082;5.426;2023-09-30T00:02:38;10.27;;;4.35;;
67889;SDS011;54685;52.082;5.426;2023-09-30T00:05:05;12.70;;;4.95;;
67889;SDS011;54685;52.082;5.426;2023-09-30T00:07:32;17.85;;;5.10;;
67889;SDS011;54685;52.082;5.426;2023-09-30T00:10:00;12.15;;;4.60;;
67889;SDS011;54685;52.082;5.426;2023-09-30T00:12:27;17.10;;;5.15;;
67889;SDS011;54685;52.082;5.426;2023-09-30T00:14:54;12.45;;;5.03;;
67889;SDS011;54685;52.082;5.426;2023-09-30T00:17:21;14.82;;;4.53;;
67889;SDS011;54685;52.082;5.426;2023-09-30T00:19:48;15.25;;;5.20;;
67889;SDS011;54685;52.082;5.426;2023-09-30T00:22:15;13.68;;;5.47;;
67889;SDS011;54685;52.082;5.426;2023-09-30T00:24:42;15.80;;;5.68;;
67889;SDS011;54685;52.082;5.426;2023-09-30T00:27:09;21.40;;;6.22;;
67889;SDS011;54685;52.082;5.426;2023-09-30T00:29:36;15.68;;;6.32;;
67889;SDS011;54685;52.082;5.426;2023-09-30T00:32:03;15.73;;;6.65;;
67889;SDS011;54685;52.082;5.426;2023-09-30T00:34:34;20.73;;;6.65;;
67889;SDS011;54685;52.082;5.426;2023-09-30T00:37:01;16.80;;;6.82;;
67889;SDS011;54685;52.082;5.426;2023-09-30T00:39:28;16.48;;;6.43;;
67889;SDS011;54685;52.082;5.426;2023-09-30T00:41:57;17.70;;;6.10;;
67889;SDS011;54685;52.082;5.426;2023-09-30T00:44:27;15.90;;;6.68;;
67889;SDS011;54685;52.082;5.426;2023-09-30T00:46:54;16.20;;;6.90;;
67889;SDS011;54685;52.082;5.426;2023-09-30T00:49:22;15.02;;;6.80;;
67889;SDS011;54685;52.082;5.426;2023-09-30T00:51:51;16.42;;;7.05;;
67889;SDS011;54685;52.082;5.426;2023-09-30T00:54:19;20.98;;;7.88;;
67889;SDS011;54685;52.082;5.426;2023-09-30T00:56:48;16.98;;;7.22;;
67889;SDS011;54685;52.082;5.426;2023-09-30T00:59:16;19.85;;;7.47;;
67889;SDS011;54685;52.082;5.426;2023-09-30T01:01:45;16.85;;;6.85;;
67889;SDS011;54685;52.082;5.426;2023-09-30T01:04:13;17.17;;;7.55;;
67889;SDS011;54685;52.082;5.426;2023-09-30T01:06:41;18.88;;;7.90;;
67889;SDS011;54685;52.082;5.426;2023-09-30T01:09:08;15.85;;;7.70;;
67889;SDS011;54685;52.082;5.426;2023-09-30T01:11:36;23.25;;;8.45;;
67889;SDS011;54685;52.082;5.426;2023-09-30T01:14:03;16.55;;;7.80;;
67889;SDS011;54685;52.082;5.426;2023-09-30T01:16:30;14.10;;;6.93;;
67889;SDS011;54685;52.082;5.426;2023-09-30T01:18:57;15.48;;;7.53;;
67889;SDS011;54685;52.082;5.426;2023-09-30T01:21:24;20.33;;;7.05;;
67889;SDS011;54685;52.082;5.426;2023-09-30T01:23:54;17.25;;;6.85;;
67889;SDS011;54685;52.082;5.426;2023-09-30T01:26:21;15.80;;;6.82;;
67889;SDS011;54685;52.082;5.426;2023-09-30T01:28:49;14.80;;;7.55;;
67889;SDS011;54685;52.082;5.426;2023-09-30T01:31:16;15.98;;;7.75;;
67889;SDS011;54685;52.082;5.426;2023-09-30T01:33:43;16.05;;;7.53;;
67889;SDS011;54685;52.082;5.426;2023-09-30T01:36:10;19.20;;;7.97;;
67889;SDS011;54685;52.082;5.426;2023-09-30T01:38:37;20.10;;;8.23;;
67889;SDS011;54685;52.082;5.426;2023-09-30T01:41:04;18.48;;;7.43;;
67889;SDS011;54685;52.082;5.426;2023-09-30T01:43:33;18.60;;;7.53;;
67889;SDS011;54685;52.082;5.426;2023-09-30T01:46:02;14.77;;;7.82;;
67889;SDS011;54685;52.082;5.426;2023-09-30T01:48:29;19.25;;;8.63;;
67889;SDS011;54685;52.082;5.426;2023-09-30T01:50:57;16.10;;;7.82;;
67889;SDS011;54685;52.082;5.426;2023-09-30T01:53:24;19.13;;;7.80;;
67889;SDS011;54685;52.082;5.426;2023-09-30T01:55:51;16.67;;;8.27;;
67889;SDS011;54685;52.082;5.426;2023-09-30T01:58:18;18.38;;;8.30;;
67889;SDS011;54685;52.082;5.426;2023-09-30T02:00:45;16.35;;;7.25;;
67889;SDS011;54685;52.082;5.426;2023-09-30T02:03:12;17.83;;;8.38;;
67889;SDS011;54685;52.082;5.426;2023-09-30T02:05:39;20.13;;;8.02;;
67889;SDS011;54685;52.082;5.426;2023-09-30T02:08:06;14.60;;;7.55;;
67889;SDS011;54685;52.082;5.426;2023-09-30T02:10:33;17.88;;;8.00;;
67889;SDS011;54685;52.082;5.426;2023-09-30T02:13:00;16.48;;;7.55;;
67889;SDS011;54685;52.082;5.426;2023-09-30T02:15:28;16.35;;;7.90;;
67889;SDS011;54685;52.082;5.426;2023-09-30T02:17:55;18.30;;;7.78;;
67889;SDS011;54685;52.082;5.426;2023-09-30T02:20:22;14.45;;;7.32;;
67889;SDS011;54685;52.082;5.426;2023-09-30T02:22:52;14.93;;;7.32;;
67889;SDS011;54685;52.082;5.426;2023-09-30T02:25:20;15.48;;;7.20;;
67889;SDS011;54685;52.082;5.426;2023-09-30T02:27:49;17.58;;;7.30;;
67889;SDS011;54685;52.082;5.426;2023-09-30T02:30:16;16.75;;;7.97;;
67889;SDS011;54685;52.082;5.426;2023-09-30T02:32:44;20.90;;;8.73;;
67889;SDS011;54685;52.082;5.426;2023-09-30T02:35:12;19.63;;;8.43;;
67889;SDS011;54685;52.082;5.426;2023-09-30T02:37:42;16.55;;;8.55;;
67889;SDS011;54685;52.082;5.426;2023-09-30T02:40:09;18.00;;;8.30;;
67889;SDS011;54685;52.082;5.426;2023-09-30T02:42:38;17.15;;;8.55;;
67889;SDS011;54685;52.082;5.426;2023-09-30T02:45:06;18.27;;;8.35;;
67889;SDS011;54685;52.082;5.426;2023-09-30T02:47:38;15.32;;;8.75;;
67889;SDS011;54685;52.082;5.426;2023-09-30T02:50:06;20.23;;;9.10;;
67889;SDS011;54685;52.082;5.426;2023-09-30T02:52:43;15.57;;;8.68;;
67889;SDS011;54685;52.082;5.426;2023-09-30T02:55:10;17.45;;;9.50;;
67889;SDS011;54685;52.082;5.426;2023-09-30T02:57:38;17.13;;;8.88;;
67889;SDS011;54685;52.082;5.426;2023-09-30T03:00:05;16.08;;;8.68;;
67889;SDS011;54685;52.082;5.426;2023-09-30T03:02:53;16.80;;;9.57;;
67889;SDS011;54685;52.082;5.426;2023-09-30T03:05:21;19.58;;;9.43;;
67889;SDS011;54685;52.082;5.426;2023-09-30T03:07:50;16.35;;;9.30;;
67889;SDS011;54685;52.082;5.426;2023-09-30T03:10:17;19.92;;;9.40;;
67889;SDS011;54685;52.082;5.426;2023-09-30T03:12:47;19.88;;;9.35;;
67889;SDS011;54685;52.082;5.426;2023-09-30T03:15:15;20.95;;;10.23;;
67889;SDS011;54685;52.082;5.426;2023-09-30T03:17:42;16.80;;;9.48;;
67889;SDS011;54685;52.082;5.426;2023-09-30T03:20:10;16.75;;;9.55;;
67889;SDS011;54685;52.082;5.426;2023-09-30T03:22:41;18.88;;;10.25;;
67889;SDS011;54685;52.082;5.426;2023-09-30T03:25:09;17.63;;;10.35;;
67889;SDS011;54685;52.082;5.426;2023-09-30T03:27:38;18.05;;;10.88;;
67889;SDS011;54685;52.082;5.426;2023-09-30T03:30:05;18.20;;;10.57;;
67889;SDS011;54685;52.082;5.426;2023-09-30T03:32:33;20.00;;;9.98;;
67889;SDS011;54685;52.082;5.426;2023-09-30T03:35:02;20.00;;;10.68;;
67889;SDS011;54685;52.082;5.426;2023-09-30T03:37:33;18.52;;;11.07;;
67889;SDS011;54685;52.082;5.426;2023-09-30T03:40:01;22.17;;;11.18;;
67889;SDS011;54685;52.082;5.426;2023-09-30T03:42:38;20.85;;;11.75;;
67889;SDS011;54685;52.082;5.426;2023-09-30T03:45:06;22.90;;;11.40;;
67889;SDS011;54685;52.082;5.426;2023-09-30T03:47:36;27.40;;;12.27;;
67889;SDS011;54685;52.082;5.426;2023-09-30T03:50:04;18.45;;;11.68;;
67889;SDS011;54685;52.082;5.426;2023-09-30T03:52:33;20.88;;;11.90;;
67889;SDS011;54685;52.082;5.426;2023-09-30T03:55:00;18.23;;;12.15;;
67889;SDS011;54685;52.082;5.426;2023-09-30T03:57:31;20.48;;;11.60;;
67889;SDS011;54685;52.082;5.426;2023-09-30T04:00:00;21.58;;;12.50;;
67889;SDS011;54685;52.082;5.426;2023-09-30T04:02:37;20.90;;;13.13;;
67889;SDS011;54685;52.082;5.426;2023-09-30T04:05:04;20.52;;;12.60;;
67889;SDS011;54685;52.082;5.426;2023-09-30T04:07:31;20.83;;;13.73;;
67889;SDS011;54685;52.082;5.426;2023-09-30T04:09:59;23.38;;;13.55;;
67889;SDS011;54685;52.082;5.426;2023-09-30T04:12:27;21.92;;;13.07;;
67889;SDS011;54685;52.082;5.426;2023-09-30T04:14:55;20.90;;;14.10;;
67889;SDS011;54685;52.082;5.426;2023-09-30T04:17:22;22.80;;;13.73;;
67889;SDS011;54685;52.082;5.426;2023-09-30T04:19:49;22.30;;;13.68;;
67889;SDS011;54685;52.082;5.426;2023-09-30T04:22:22;22.67;;;13.98;;
67889;SDS011;54685;52.082;5.426;2023-09-30T04:25:02;23.80;;;14.82;;
67889;SDS011;54685;52.082;5.426;2023-09-30T04:27:34;21.48;;;13.73;;
67889;SDS011;54685;52.082;5.426;2023-09-30T04:30:02;18.75;;;13.10;;
67889;SDS011;54685;52.082;5.426;2023-09-30T04:32:35;20.27;;;13.70;;
67889;SDS011;54685;52.082;5.426;2023-09-30T04:35:03;19.92;;;13.35;;
67889;SDS011;54685;52.082;5.426;2023-09-30T04:37:31;21.05;;;13.88;;
67889;SDS011;54685;52.082;5.426;2023-09-30T04:39:58;23.55;;;14.73;;
67889;SDS011;54685;52.082;5.426;2023-09-30T04:42:25;21.80;;;14.50;;
67889;SDS011;54685;52.082;5.426;2023-09-30T04:44:52;22.25;;;14.77;;
67889;SDS011;54685;52.082;5.426;2023-09-30T04:47:21;25.70;;;14.77;;
67889;SDS011;54685;52.082;5.426;2023-09-30T04:49:50;25.45;;;15.25;;
67889;SDS011;54685;52.082;5.426;2023-09-30T04:52:17;26.65;;;15.10;;
67889;SDS011;54685;52.082;5.426;2023-09-30T04:54:44;24.98;;;15.07;;
67889;SDS011;54685;52.082;5.426;2023-09-30T04:57:12;22.05;;;14.75;;
67889;SDS011;54685;52.082;5.426;2023-09-30T04:59:39;24.27;;;14.90;;
67889;SDS011;54685;52.082;5.426;2023-09-30T05:02:06;25.95;;;15.48;;
67889;SDS011;54685;52.082;5.426;2023-09-30T05:04:33;24.55;;;14.63;;
67889;SDS011;54685;52.082;5.426;2023-09-30T05:07:00;18.40;;;13.63;;
67889;SDS011;54685;52.082;5.426;2023-09-30T05:09:27;20.33;;;14.05;;
67889;SDS011;54685;52.082;5.426;2023-09-30T05:11:54;26.60;;;15.57;;
67889;SDS011;54685;52.082;5.426;2023-09-30T05:14:21;25.38;;;16.05;;
67889;SDS011;54685;52.082;5.426;2023-09-30T05:16:48;22.17;;;14.50;;
67889;SDS011;54685;52.082;5.426;2023-09-30T05:19:15;25.45;;;14.90;;
67889;SDS011;54685;52.082;5.426;2023-09-30T05:21:42;21.98;;;14.77;;
67889;SDS011;54685;52.082;5.426;2023-09-30T05:24:11;24.92;;;14.82;;
67889;SDS011;54685;52.082;5.426;2023-09-30T05:26:38;25.52;;;14.55;;
67889;SDS011;54685;52.082;5.426;2023-09-30T05:29:05;27.17;;;17.50;;
67889;SDS011;54685;52.082;5.426;2023-09-30T05:31:32;24.35;;;16.85;;
67889;SDS011;54685;52.082;5.426;2023-09-30T05:33:59;25.45;;;17.45;;
67889;SDS011;54685;52.082;5.426;2023-09-30T05:36:27;29.05;;;18.00;;
67889;SDS011;54685;52.082;5.426;2023-09-30T05:38:54;30.15;;;17.75;;
67889;SDS011;54685;52.082;5.426;2023-09-30T05:41:21;30.48;;;18.27;;
67889;SDS011;54685;52.082;5.426;2023-09-30T05:43:48;28.00;;;16.50;;
67889;SDS011;54685;52.082;5.426;2023-09-30T05:46:16;22.83;;;15.63;;
67889;SDS011;54685;52.082;5.426;2023-09-30T05:48:44;25.40;;;14.77;;
67889;SDS011;54685;52.082;5.426;2023-09-30T05:51:11;27.65;;;15.52;;
67889;SDS011;54685;52.082;5.426;2023-09-30T05:53:41;21.70;;;14.15;;
67889;SDS011;54685;52.082;5.426;2023-09-30T05:56:08;22.58;;;14.77;;
67889;SDS011;54685;52.082;5.426;2023-09-30T05:58:37;22.45;;;14.55;;
67889;SDS011;54685;52.082;5.426;2023-09-30T06:01:08;26.08;;;16.20;;
67889;SDS011;54685;52.082;5.426;2023-09-30T06:03:39;28.52;;;15.38;;
67889;SDS011;54685;52.082;5.426;2023-09-30T06:06:12;23.00;;;16.15;;
67889;SDS011;54685;52.082;5.426;2023-09-30T06:08:42;30.70;;;16.45;;
67889;SDS011;54685;52.082;5.426;2023-09-30T06:11:16;27.55;;;15.60;;
67889;SDS011;54685;52.082;5.426;2023-09-30T06:13:51;23.25;;;14.90;;
67889;SDS011;54685;52.082;5.426;2023-09-30T06:16:19;26.00;;;16.17;;
67889;SDS011;54685;52.082;5.426;2023-09-30T06:18:46;26.25;;;15.20;;
67889;SDS011;54685;52.082;5.426;2023-09-30T06:21:14;27.45;;;15.23;;
67889;SDS011;54685;52.082;5.426;2023-09-30T06:23:44;22.70;;;14.50;;
67889;SDS011;54685;52.082;5.426;2023-09-30T06:26:11;24.08;;;14.50;;
67889;SDS011;54685;52.082;5.426;2023-09-30T06:28:38;25.05;;;15.38;;
67889;SDS011;54685;52.082;5.426;2023-09-30T06:31:07;31.42;;;15.48;;
67889;SDS011;54685;52.082;5.426;2023-09-30T06:33:35;27.50;;;14.88;;
67889;SDS011;54685;52.082;5.426;2023-09-30T06:36:08;24.08;;;16.35;;
67889;SDS011;54685;52.082;5.426;2023-09-30T06:38:37;24.60;;;15.73;;
67889;SDS011;54685;52.082;5.426;2023-09-30T06:41:04;23.23;;;14.77;;
67889;SDS011;54685;52.082;5.426;2023-09-30T06:43:32;27.30;;;17.17;;
67889;SDS011;54685;52.082;5.426;2023-09-30T06:45:59;28.02;;;16.73;;
67889;SDS011;54685;52.082;5.426;2023-09-30T06:50:58;26.55;;;16.27;;
67889;SDS011;54685;52.082;5.426;2023-09-30T06:53:26;29.38;;;17.42;;
67889;SDS011;54685;52.082;5.426;2023-09-30T06:55:54;26.60;;;15.18;;
67889;SDS011;54685;52.082;5.426;2023-09-30T06:58:21;26.95;;;17.90;;
67889;SDS011;54685;52.082;5.426;2023-09-30T07:00:49;34.10;;;18.15;;
67889;SDS011;54685;52.082;5.426;2023-09-30T07:03:17;27.77;;;18.20;;
67889;SDS011;54685;52.082;5.426;2023-09-30T07:05:51;30.23;;;16.80;;
67889;SDS011;54685;52.082;5.426;2023-09-30T07:08:21;27.75;;;16.08;;
67889;SDS011;54685;52.082;5.426;2023-09-30T07:10:48;29.27;;;17.15;;
67889;SDS011;54685;52.082;5.426;2023-09-30T07:13:19;23.95;;;15.70;;
67889;SDS011;54685;52.082;5.426;2023-09-30T07:15:47;25.73;;;17.10;;
67889;SDS011;54685;52.082;5.426;2023-09-30T07:18:14;28.33;;;17.88;;
67889;SDS011;54685;52.082;5.426;2023-09-30T07:20:41;32.83;;;16.75;;
67889;SDS011;54685;52.082;5.426;2023-09-30T07:23:08;30.65;;;17.30;;
67889;SDS011;54685;52.082;5.426;2023-09-30T07:25:46;32.45;;;18.00;;
67889;SDS011;54685;52.082;5.426;2023-09-30T07:28:13;28.00;;;17.67;;
67889;SDS011;54685;52.082;5.426;2023-09-30T07:30:40;30.00;;;17.88;;
67889;SDS011;54685;52.082;5.426;2023-09-30T07:33:08;27.83;;;17.45;;
67889;SDS011;54685;52.082;5.426;2023-09-30T07:35:35;26.83;;;16.48;;
67889;SDS011;54685;52.082;5.426;2023-09-30T07:38:05;27.42;;;17.15;;
67889;SDS011;54685;52.082;5.426;2023-09-30T07:40:32;25.73;;;16.88;;
67889;SDS011;54685;52.082;5.426;2023-09-30T07:42:59;24.88;;;15.77;;
67889;SDS011;54685;52.082;5.426;2023-09-30T07:45:26;24.95;;;15.82;;
67889;SDS011;54685;52.082;5.426;2023-09-30T07:47:55;32.70;;;15.77;;
67889;SDS011;54685;52.082;5.426;2023-09-30T07:50:22;27.60;;;15.32;;
67889;SDS011;54685;52.082;5.426;2023-09-30T07:52:49;26.70;;;15.18;;
67889;SDS011;54685;52.082;5.426;2023-09-30T07:55:16;26.65;;;17.08;;
67889;SDS011;54685;52.082;5.426;2023-09-30T07:57:43;34.05;;;16.88;;
67889;SDS011;54685;52.082;5.426;2023-09-30T08:00:10;23.35;;;14.95;;
67889;SDS011;54685;52.082;5.426;2023-09-30T08:02:43;24.80;;;16.70;;
67889;SDS011;54685;52.082;5.426;2023-09-30T08:05:10;25.38;;;16.73;;
67889;SDS011;54685;52.082;5.426;2023-09-30T08:07:38;25.73;;;16.92;;
67889;SDS011;54685;52.082;5.426;2023-09-30T08:10:05;25.52;;;16.60;;
67889;SDS011;54685;52.082;5.426;2023-09-30T08:12:41;21.25;;;14.38;;
67889;SDS011;54685;52.082;5.426;2023-09-30T08:15:09;21.45;;;14.82;;
67889;SDS011;54685;52.082;5.426;2023-09-30T08:17:38;24.23;;;15.15;;
67889;SDS011;54685;52.082;5.426;2023-09-30T08:20:06;27.05;;;15.13;;
67889;SDS011;54685;52.082;5.426;2023-09-30T08:22:37;22.77;;;14.40;;
67889;SDS011;54685;52.082;5.426;2023-09-30T08:25:05;24.40;;;13.80;;
67889;SDS011;54685;52.082;5.426;2023-09-30T08:27:32;25.52;;;13.85;;
67889;SDS011;54685;52.082;5.426;2023-09-30T08:30:00;22.05;;;13.02;;
67889;SDS011;54685;52.082;5.426;2023-09-30T08:32:34;21.20;;;13.48;;
67889;SDS011;54685;52.082;5.426;2023-09-30T08:35:02;19.27;;;11.85;;
67889;SDS011;54685;52.082;5.426;2023-09-30T08:37:30;21.55;;;12.35;;
67889;SDS011;54685;52.082;5.426;2023-09-30T08:39:58;18.08;;;12.02;;
67889;SDS011;54685;52.082;5.426;2023-09-30T08:42:25;24.42;;;12.68;;
67889;SDS011;54685;52.082;5.426;2023-09-30T08:45:00;20.08;;;11.85;;
67889;SDS011;54685;52.082;5.426;2023-09-30T08:47:27;23.08;;;13.45;;
67889;SDS011;54685;52.082;5.426;2023-09-30T08:49:56;25.10;;;12.63;;
67889;SDS011;54685;52.082;5.426;2023-09-30T08:52:32;24.63;;;11.75;;
67889;SDS011;54685;52.082;5.426;2023-09-30T08:55:06;21.95;;;11.80;;
67889;SDS011;54685;52.082;5.426;2023-09-30T08:57:36;23.15;;;12.02;;
67889;SDS011;54685;52.082;5.426;2023-09-30T09:00:09;23.98;;;11.38;;
67889;SDS011;54685;52.082;5.426;2023-09-30T09:02:40;24.23;;;12.02;;
67889;SDS011;54685;52.082;5.426;2023-09-30T09:05:08;21.33;;;11.23;;
67889;SDS011;54685;52.082;5.426;2023-09-30T09:07:36;20.17;;;13.00;;
67889;SDS011;54685;52.082;5.426;2023-09-30T09:10:09;21.90;;;13.10;;
67889;SDS011;54685;52.082;5.426;2023-09-30T09:12:40;23.80;;;12.75;;
67889;SDS011;54685;52.082;5.426;2023-09-30T09:15:08;21.25;;;11.88;;
67889;SDS011;54685;52.082;5.426;2023-09-30T09:17:46;18.65;;;11.63;;
67889;SDS011;54685;52.082;5.426;2023-09-30T09:20:17;19.92;;;11.20;;
67889;SDS011;54685;52.082;5.426;2023-09-30T09:22:49;16.27;;;11.05;;
67889;SDS011;54685;52.082;5.426;2023-09-30T09:25:20;19.67;;;11.63;;
67889;SDS011;54685;52.082;5.426;2023-09-30T09:27:50;20.23;;;10.27;;
67889;SDS011;54685;52.082;5.426;2023-09-30T09:32:52;17.27;;;9.27;;
67889;SDS011;54685;52.082;5.426;2023-09-30T09:35:21;14.32;;;8.45;;
67889;SDS011;54685;52.082;5.426;2023-09-30T09:37:54;18.02;;;9.15;;
67889;SDS011;54685;52.082;5.426;2023-09-30T09:40:23;13.68;;;7.90;;
67889;SDS011;54685;52.082;5.426;2023-09-30T09:42:51;17.20;;;8.73;;
67889;SDS011;54685;52.082;5.426;2023-09-30T09:45:21;21.00;;;8.93;;
67889;SDS011;54685;52.082;5.426;2023-09-30T09:47:52;15.82;;;8.93;;
67889;SDS011;54685;52.082;5.426;2023-09-30T09:50:20;14.95;;;8.23;;
67889;SDS011;54685;52.082;5.426;2023-09-30T09:52:49;18.35;;;8.55;;
67889;SDS011;54685;52.082;5.426;2023-09-30T09:55:22;19.17;;;8.65;;
67889;SDS011;54685;52.082;5.426;2023-09-30T09:57:49;14.48;;;8.35;;
67889;SDS011;54685;52.082;5.426;2023-09-30T10:00:21;16.00;;;8.20;;
67889;SDS011;54685;52.082;5.426;2023-09-30T10:02:50;22.55;;;9.20;;
67889;SDS011;54685;52.082;5.426;2023-09-30T10:05:18;12.35;;;7.25;;
67889;SDS011;54685;52.082;5.426;2023-09-30T10:07:51;14.38;;;6.18;;
67889;SDS011;54685;52.082;5.426;2023-09-30T10:10:19;11.35;;;5.70;;
67889;SDS011;54685;52.082;5.426;2023-09-30T10:12:51;12.77;;;6.35;;
67889;SDS011;54685;52.082;5.426;2023-09-30T10:17:58;10.38;;;5.45;;
67889;SDS011;54685;52.082;5.426;2023-09-30T10:20:29;10.88;;;4.57;;
67889;SDS011;54685;52.082;5.426;2023-09-30T10:25:54;10.90;;;4.85;;
67889;SDS011;54685;52.082;5.426;2023-09-30T10:28:42;11.80;;;5.00;;
67889;SDS011;54685;52.082;5.426;2023-09-30T10:31:16;14.00;;;5.30;;
67889;SDS011;54685;52.082;5.426;2023-09-30T10:38:55;11.45;;;4.57;;
67889;SDS011;54685;52.082;5.426;2023-09-30T10:46:59;10.32;;;4.65;;
67889;SDS011;54685;52.082;5.426;2023-09-30T10:49:47;9.60;;;4.18;;
67889;SDS011;54685;52.082;5.426;2023-09-30T10:52:21;15.15;;;5.63;;
67889;SDS011;54685;52.082;5.426;2023-09-30T10:54:49;12.88;;;4.40;;
67889;SDS011;54685;52.082;5.426;2023-09-30T10:57:28;10.27;;;4.68;;
67889;SDS011;54685;52.082;5.426;2023-09-30T11:00:11;11.02;;;4.32;;
67889;SDS011;54685;52.082;5.426;2023-09-30T11:02:48;10.60;;;4.65;;
67889;SDS011;54685;52.082;5.426;2023-09-30T11:05:17;10.43;;;4.68;;
67889;SDS011;54685;52.082;5.426;2023-09-30T11:08:09;12.65;;;4.20;;
67889;SDS011;54685;52.082;5.426;2023-09-30T11:10:36;13.30;;;4.55;;
67889;SDS011;54685;52.082;5.426;2023-09-30T11:13:03;13.20;;;4.60;;
67889;SDS011;54685;52.082;5.426;2023-09-30T11:15:31;12.90;;;4.68;;
67889;SDS011;54685;52.082;5.426;2023-09-30T11:18:12;13.00;;;4.20;;
67889;SDS011;54685;52.082;5.426;2023-09-30T11:20:43;16.35;;;4.93;;
67889;SDS011;54685;52.082;5.426;2023-09-30T11:23:11;10.95;;;4.18;;
67889;SDS011;54685;52.082;5.426;2023-09-30T11:25:39;11.57;;;4.82;;
67889;SDS011;54685;52.082;5.426;2023-09-30T11:28:15;12.48;;;4.22;;
67889;SDS011;54685;52.082;5.426;2023-09-30T11:30:56;14.70;;;3.95;;
67889;SDS011;54685;52.082;5.426;2023-09-30T11:33:24;12.77;;;4.07;;
67889;SDS011;54685;52.082;5.426;2023-09-30T11:38:25;9.90;;;3.15;;
67889;SDS011;54685;52.082;5.426;2023-09-30T11:41:03;11.23;;;3.63;;
67889;SDS011;54685;52.082;5.426;2023-09-30T11:43:33;10.55;;;3.63;;
67889;SDS011;54685;52.082;5.426;2023-09-30T11:46:04;8.63;;;3.47;;
67889;SDS011;54685;52.082;5.426;2023-09-30T11:50:59;8.38;;;3.05;;
67889;SDS011;54685;52.082;5.426;2023-09-30T11:53:29;11.50;;;3.75;;
67889;SDS011;54685;52.082;5.426;2023-09-30T11:56:03;12.15;;;4.03;;
67889;SDS011;54685;52.082;5.426;2023-09-30T11:58:32;13.52;;;3.60;;
67889;SDS011;54685;52.082;5.426;2023-09-30T12:00:59;8.82;;;3.45;;
67889;SDS011;54685;52.082;5.426;2023-09-30T12:03:27;17.23;;;4.97;;
67889;SDS011;54685;52.082;5.426;2023-09-30T12:05:54;11.65;;;4.43;;
67889;SDS011;54685;52.082;5.426;2023-09-30T12:08:24;11.18;;;4.25;;
67889;SDS011;54685;52.082;5.426;2023-09-30T12:10:51;12.23;;;4.32;;
67889;SDS011;54685;52.082;5.426;2023-09-30T12:13:18;13.63;;;4.60;;
67889;SDS011;54685;52.082;5.426;2023-09-30T12:15:45;14.52;;;5.15;;
67889;SDS011;54685;52.082;5.426;2023-09-30T12:18:12;15.65;;;3.90;;
67889;SDS011;54685;52.082;5.426;2023-09-30T12:20:43;11.63;;;4.80;;
67889;SDS011;54685;52.082;5.426;2023-09-30T12:23:11;11.48;;;4.63;;
67889;SDS011;54685;52.082;5.426;2023-09-30T12:25:38;8.93;;;3.88;;
67889;SDS011;54685;52.082;5.426;2023-09-30T12:28:05;12.13;;;4.13;;
67889;SDS011;54685;52.082;5.426;2023-09-30T12:30:32;9.13;;;3.47;;
67889;SDS011;54685;52.082;5.426;2023-09-30T12:32:59;13.55;;;2.97;;
67889;SDS011;54685;52.082;5.426;2023-09-30T12:35:26;6.80;;;2.63;;
67889;SDS011;54685;52.082;5.426;2023-09-30T12:37:53;5.63;;;2.40;;
67889;SDS011;54685;52.082;5.426;2023-09-30T12:40:21;13.35;;;3.63;;
67889;SDS011;54685;52.082;5.426;2023-09-30T12:42:49;10.70;;;3.70;;
67889;SDS011;54685;52.082;5.426;2023-09-30T12:45:16;13.32;;;4.35;;
67889;SDS011;54685;52.082;5.426;2023-09-30T12:47:44;11.93;;;4.43;;
67889;SDS011;54685;52.082;5.426;2023-09-30T12:50:13;12.85;;;5.10;;
67889;SDS011;54685;52.082;5.426;2023-09-30T12:52:40;10.13;;;3.50;;
67889;SDS011;54685;52.082;5.426;2023-09-30T12:55:07;10.90;;;2.90;;
67889;SDS011;54685;52.082;5.426;2023-09-30T12:57:35;9.48;;;2.88;;
67889;SDS011;54685;52.082;5.426;2023-09-30T13:00:02;12.48;;;3.20;;
67889;SDS011;54685;52.082;5.426;2023-09-30T13:02:30;9.68;;;3.35;;
67889;SDS011;54685;52.082;5.426;2023-09-30T13:04:57;9.32;;;3.33;;
67889;SDS011;54685;52.082;5.426;2023-09-30T13:07:24;10.27;;;3.28;;
67889;SDS011;54685;52.082;5.426;2023-09-30T13:09:51;16.35;;;3.85;;
67889;SDS011;54685;52.082;5.426;2023-09-30T13:12:18;11.43;;;3.22;;
67889;SDS011;54685;52.082;5.426;2023-09-30T13:14:45;10.15;;;3.17;;
67889;SDS011;54685;52.082;5.426;2023-09-30T13:17:12;9.63;;;3.42;;
67889;SDS011;54685;52.082;5.426;2023-09-30T13:19:40;8.35;;;3.10;;
67889;SDS011;54685;52.082;5.426;2023-09-30T13:22:08;12.93;;;3.28;;
67889;SDS011;54685;52.082;5.426;2023-09-30T13:24:44;9.07;;;3.47;;
67889;SDS011;54685;52.082;5.426;2023-09-30T13:27:12;13.63;;;3.70;;
67889;SDS011;54685;52.082;5.426;2023-09-30T13:29:42;14.32;;;3.65;;
67889;SDS011;54685;52.082;5.426;2023-09-30T13:32:10;14.70;;;3.72;;
67889;SDS011;54685;52.082;5.426;2023-09-30T13:34:37;11.52;;;3.03;;
67889;SDS011;54685;52.082;5.426;2023-09-30T13:37:04;10.07;;;3.42;;
67889;SDS011;54685;52.082;5.426;2023-09-30T13:39:31;16.75;;;3.75;;
67889;SDS011;54685;52.082;5.426;2023-09-30T13:42:00;15.00;;;3.53;;
67889;SDS011;54685;52.082;5.426;2023-09-30T13:44:27;10.75;;;3.38;;
67889;SDS011;54685;52.082;5.426;2023-09-30T13:46:54;11.98;;;3.30;;
67889;SDS011;54685;52.082;5.426;2023-09-30T13:49:20;11.77;;;3.90;;
67889;SDS011;54685;52.082;5.426;2023-09-30T13:51:48;9.85;;;3.10;;
67889;SDS011;54685;52.082;5.426;2023-09-30T13:54:14;12.32;;;3.65;;
67889;SDS011;54685;52.082;5.426;2023-09-30T13:56:41;11.48;;;3.70;;
67889;SDS011;54685;52.082;5.426;2023-09-30T13:59:10;14.18;;;5.50;;
67889;SDS011;54685;52.082;5.426;2023-09-30T14:01:37;16.00;;;5.47;;
67889;SDS011;54685;52.082;5.426;2023-09-30T14:04:04;11.00;;;3.80;;
67889;SDS011;54685;52.082;5.426;2023-09-30T14:06:32;9.77;;;3.67;;
67889;SDS011;54685;52.082;5.426;2023-09-30T14:08:59;11.82;;;3.53;;
67889;SDS011;54685;52.082;5.426;2023-09-30T14:11:26;14.07;;;4.00;;
67889;SDS011;54685;52.082;5.426;2023-09-30T14:13:53;12.05;;;3.35;;
67889;SDS011;54685;52.082;5.426;2023-09-30T14:16:20;10.70;;;3.50;;
67889;SDS011;54685;52.082;5.426;2023-09-30T14:18:47;11.07;;;3.95;;
67889;SDS011;54685;52.082;5.426;2023-09-30T14:21:16;12.15;;;4.10;;
67889;SDS011;54685;52.082;5.426;2023-09-30T14:23:44;13.23;;;4.07;;
67889;SDS011;54685;52.082;5.426;2023-09-30T14:26:14;12.38;;;4.03;;
67889;SDS011;54685;52.082;5.426;2023-09-30T14:28:41;9.63;;;3.83;;
67889;SDS011;54685;52.082;5.426;2023-09-30T14:31:08;15.32;;;4.22;;
67889;SDS011;54685;52.082;5.426;2023-09-30T14:33:35;10.90;;;3.70;;
67889;SDS011;54685;52.082;5.426;2023-09-30T14:36:02;9.60;;;3.78;;
67889;SDS011;54685;52.082;5.426;2023-09-30T14:38:32;10.50;;;4.40;;
67889;SDS011;54685;52.082;5.426;2023-09-30T14:40:59;12.45;;;4.75;;
67889;SDS011;54685;52.082;5.426;2023-09-30T14:43:26;11.32;;;4.25;;
67889;SDS011;54685;52.082;5.426;2023-09-30T14:45:53;15.10;;;4.60;;
67889;SDS011;54685;52.082;5.426;2023-09-30T14:48:20;13.27;;;4.93;;
67889;SDS011;54685;52.082;5.426;2023-09-30T14:50:50;12.75;;;4.57;;
67889;SDS011;54685;52.082;5.426;2023-09-30T14:53:30;12.98;;;4.35;;
67889;SDS011;54685;52.082;5.426;2023-09-30T14:55:57;12.48;;;4.63;;
67889;SDS011;54685;52.082;5.426;2023-09-30T14:58:24;11.73;;;4.40;;
67889;SDS011;54685;52.082;5.426;2023-09-30T15:00:51;11.05;;;4.38;;
67889;SDS011;54685;52.082;5.426;2023-09-30T15:03:18;11.57;;;4.05;;
67889;SDS011;54685;52.082;5.426;2023-09-30T15:05:45;12.23;;;3.95;;